createdAt,value
2018-12-21T00:00:45.852Z,19.60
2018-12-21T00:05:51.094Z,17.37
2018-12-21T00:10:56.328Z,16.97
2018-12-21T00:16:01.565Z,19.33
2018-12-21T00:21:06.806Z,19.30
2018-12-21T00:26:12.037Z,19.97
2018-12-21T00:31:22.445Z,15.27
2018-12-21T00:36:32.908Z,14.50
2018-12-21T00:41:37.224Z,18.47
2018-12-21T00:46:45.121Z,18.33
2018-12-21T00:51:50.356Z,14.87
2018-12-21T00:56:55.640Z,18.33
2018-12-21T01:02:00.874Z,17.90
2018-12-21T01:07:06.145Z,17.70
2018-12-21T01:12:11.407Z,23.27
2018-12-21T01:17:16.677Z,18.77
2018-12-21T01:22:21.913Z,16.87
2018-12-21T01:27:27.174Z,17.00
2018-12-21T01:32:32.389Z,15.83
2018-12-21T01:37:37.613Z,15.43
2018-12-21T01:42:42.863Z,15.60
2018-12-21T01:47:48.154Z,17.17
2018-12-21T01:52:53.526Z,15.37
2018-12-21T01:57:58.791Z,15.87
2018-12-21T02:03:04.044Z,15.53
2018-12-21T02:08:09.377Z,13.53
2018-12-21T02:13:14.647Z,13.90
2018-12-21T02:18:19.949Z,13.93
2018-12-21T02:23:25.226Z,18.93
2018-12-21T02:28:30.482Z,15.47
2018-12-21T02:33:35.753Z,15.03
2018-12-21T02:38:41.001Z,15.67
2018-12-21T02:43:46.284Z,13.27
2018-12-21T02:48:51.538Z,12.93
2018-12-21T02:53:56.821Z,12.97
2018-12-21T02:59:02.089Z,17.70
2018-12-21T03:04:07.333Z,12.43
2018-12-21T03:09:12.614Z,12.50
2018-12-21T03:14:17.886Z,12.60
2018-12-21T03:19:23.139Z,14.90
2018-12-21T03:24:28.405Z,11.40
2018-12-21T03:29:33.674Z,13.47
2018-12-21T03:34:38.940Z,16.73
2018-12-21T03:39:44.308Z,10.07
2018-12-21T03:44:49.627Z,9.60
2018-12-21T03:49:54.951Z,10.73
2018-12-21T03:55:00.250Z,11.73
2018-12-21T04:00:06.302Z,9.17
2018-12-21T04:05:11.569Z,10.30
2018-12-21T04:10:16.853Z,7.63
2018-12-21T04:15:22.143Z,10.30
2018-12-21T04:20:27.389Z,7.50
2018-12-21T04:25:32.640Z,9.00
2018-12-21T04:30:37.896Z,7.03
2018-12-21T04:35:43.261Z,6.07
2018-12-21T04:40:48.577Z,8.97
2018-12-21T04:45:53.864Z,7.93
2018-12-21T04:50:59.114Z,8.73
2018-12-21T04:56:04.424Z,7.87
2018-12-21T05:01:09.669Z,10.17
2018-12-21T05:06:14.939Z,10.87
2018-12-21T05:11:20.194Z,11.77
2018-12-21T05:16:25.452Z,5.73
2018-12-21T05:21:30.699Z,9.67
2018-12-21T05:26:35.971Z,8.90
2018-12-21T05:31:41.250Z,9.53
2018-12-21T05:36:46.540Z,7.80
2018-12-21T05:41:51.771Z,5.73
2018-12-21T05:46:57.028Z,7.10
2018-12-21T05:52:02.273Z,7.67
2018-12-21T05:57:07.532Z,10.23
2018-12-21T06:02:12.781Z,10.80
2018-12-21T06:07:18.050Z,7.77
2018-12-21T06:12:23.353Z,8.27
2018-12-21T06:17:28.699Z,7.10
2018-12-21T06:22:33.980Z,7.97
2018-12-21T06:27:39.239Z,6.10
2018-12-21T06:32:44.525Z,6.00
2018-12-21T06:37:49.791Z,5.77
2018-12-21T06:42:55.029Z,5.47
2018-12-21T06:48:00.269Z,6.33
2018-12-21T06:53:05.510Z,9.70
2018-12-21T06:58:10.812Z,5.90
2018-12-21T07:03:17.165Z,6.13
2018-12-21T07:08:21.402Z,4.97
2018-12-21T07:13:26.638Z,6.87
2018-12-21T07:18:31.937Z,8.73
2018-12-21T07:23:37.181Z,10.53
2018-12-21T07:28:42.451Z,11.27
2018-12-21T07:33:47.711Z,9.73
2018-12-21T07:38:53.022Z,10.53
2018-12-21T07:43:58.305Z,14.20
2018-12-21T07:49:03.573Z,11.03
2018-12-21T07:54:08.855Z,12.97
2018-12-21T07:59:14.158Z,10.93
2018-12-21T08:04:19.423Z,9.20
2018-12-21T08:09:24.710Z,10.17
2018-12-21T08:14:29.972Z,10.27
2018-12-21T08:19:35.222Z,8.43
2018-12-21T08:24:40.483Z,11.47
2018-12-21T08:29:45.749Z,8.87
2018-12-21T08:34:51.086Z,8.67
2018-12-21T08:39:56.366Z,8.90
2018-12-21T08:45:01.645Z,7.47
2018-12-21T08:50:10.539Z,14.47
2018-12-21T08:55:17.484Z,8.87
2018-12-21T09:00:23.117Z,9.97
2018-12-21T09:05:28.698Z,17.33
2018-12-21T09:10:33.942Z,8.03
2018-12-21T09:15:39.271Z,7.00
2018-12-21T09:20:44.564Z,7.13
2018-12-21T09:25:49.902Z,5.27
2018-12-21T09:30:55.211Z,4.73
2018-12-21T09:36:00.533Z,6.33
2018-12-21T09:41:05.771Z,9.67
2018-12-21T09:46:11.045Z,9.00
2018-12-21T09:51:16.402Z,6.93
2018-12-21T09:56:21.761Z,10.67
2018-12-21T10:01:27.003Z,6.73
2018-12-21T10:06:32.269Z,7.80
2018-12-21T10:11:37.506Z,4.53
2018-12-21T10:16:42.797Z,6.77
2018-12-21T10:21:48.033Z,8.30
2018-12-21T10:26:53.292Z,4.53
2018-12-21T10:31:58.578Z,6.10
2018-12-21T10:37:03.841Z,5.10
2018-12-21T10:42:09.085Z,5.63
2018-12-21T10:47:14.315Z,3.97
2018-12-21T10:52:19.602Z,3.20
2018-12-21T10:57:24.854Z,3.37
2018-12-21T11:02:30.095Z,3.57
2018-12-21T11:07:35.360Z,9.33
2018-12-21T11:12:42.563Z,3.17
2018-12-21T11:17:47.857Z,8.97
2018-12-21T11:22:53.090Z,5.37
2018-12-21T11:27:58.337Z,3.37
2018-12-21T11:33:03.622Z,8.97
2018-12-21T11:38:08.888Z,3.03
2018-12-21T11:43:14.135Z,6.37
2018-12-21T11:48:19.380Z,4.30
2018-12-21T11:53:24.639Z,5.37
2018-12-21T11:58:29.934Z,7.37
2018-12-21T12:03:35.174Z,4.50
2018-12-21T12:08:40.426Z,5.53
2018-12-21T12:13:45.682Z,11.20
2018-12-21T12:18:50.994Z,5.00
2018-12-21T12:23:56.233Z,5.13
2018-12-21T12:29:01.457Z,7.33
2018-12-21T12:34:06.717Z,3.53
2018-12-21T12:39:12.174Z,4.33
2018-12-21T12:44:17.433Z,6.27
2018-12-21T12:49:22.730Z,4.20
2018-12-21T12:54:28.167Z,8.10
2018-12-21T12:59:33.474Z,6.73
2018-12-21T13:04:38.798Z,4.83
2018-12-21T13:09:44.194Z,7.27
2018-12-21T13:14:49.434Z,6.60
2018-12-21T13:19:54.709Z,7.30
2018-12-21T13:24:59.989Z,4.67
2018-12-21T13:30:08.703Z,5.27
2018-12-21T13:35:13.963Z,5.13
2018-12-21T13:40:19.186Z,5.67
2018-12-21T13:45:24.533Z,4.73
2018-12-21T13:50:29.877Z,3.63
2018-12-21T13:55:35.169Z,2.53
2018-12-21T14:00:40.660Z,8.47
2018-12-21T14:05:45.980Z,7.03
2018-12-21T14:10:51.234Z,4.10
2018-12-21T14:15:56.697Z,5.27
2018-12-21T14:21:01.957Z,4.20
2018-12-21T14:26:07.216Z,5.07
2018-12-21T14:31:12.490Z,4.03
2018-12-21T14:36:17.830Z,6.63
2018-12-21T14:41:23.154Z,5.50
2018-12-21T14:46:28.426Z,8.43
2018-12-21T14:51:33.693Z,7.53
2018-12-21T14:56:39.153Z,8.37
2018-12-21T15:01:44.349Z,8.13
2018-12-21T15:06:49.581Z,8.80
2018-12-21T15:11:54.829Z,5.83
2018-12-21T15:17:00.796Z,8.23
2018-12-21T15:22:06.054Z,10.73
2018-12-21T15:27:11.288Z,8.70
2018-12-21T15:32:16.502Z,13.60
2018-12-21T15:37:21.738Z,7.97
2018-12-21T15:42:27.016Z,13.33
2018-12-21T15:47:32.277Z,12.53
2018-12-21T15:52:37.559Z,10.90
2018-12-21T15:57:42.889Z,10.47
2018-12-21T16:02:52.930Z,10.83
2018-12-21T16:07:58.211Z,9.10
2018-12-21T16:13:03.503Z,9.30
2018-12-21T16:18:08.992Z,10.07
2018-12-21T16:23:14.322Z,9.67
2018-12-21T16:28:19.606Z,8.40
2018-12-21T16:33:24.853Z,9.77
2018-12-21T16:38:30.133Z,8.37
2018-12-21T16:43:35.394Z,10.83
2018-12-21T16:48:40.664Z,9.17
2018-12-21T16:53:46.098Z,8.30
2018-12-21T16:58:51.374Z,8.13
2018-12-21T17:03:56.789Z,8.13
2018-12-21T17:09:02.086Z,7.00
2018-12-21T17:14:07.394Z,7.77
2018-12-21T17:19:18.546Z,8.00
2018-12-21T17:24:23.942Z,7.67
2018-12-21T17:29:29.262Z,5.87
2018-12-21T17:34:34.568Z,5.23
2018-12-21T17:39:39.809Z,5.53
2018-12-21T17:44:45.048Z,5.97
2018-12-21T17:49:50.282Z,4.63
2018-12-21T17:54:55.515Z,4.97
2018-12-21T18:00:00.750Z,3.80
2018-12-21T18:05:06.197Z,6.50
2018-12-21T18:10:12.565Z,3.50
2018-12-21T18:15:17.828Z,3.70
2018-12-21T18:20:23.036Z,4.17
2018-12-21T18:25:30.033Z,3.73
2018-12-21T18:30:43.911Z,5.30
2018-12-21T18:35:49.249Z,4.60
2018-12-21T18:40:54.497Z,4.97
2018-12-21T18:45:59.857Z,5.60
2018-12-21T18:51:05.061Z,8.87
2018-12-21T18:56:18.057Z,8.77
2018-12-21T19:01:23.291Z,9.93
2018-12-21T19:06:28.517Z,5.93
2018-12-21T19:11:33.741Z,9.37
2018-12-21T19:16:39.062Z,8.37
2018-12-21T19:21:44.314Z,7.33
2018-12-21T19:26:55.735Z,7.87
2018-12-21T19:31:54.869Z,7.70
2018-12-21T19:37:00.173Z,7.33
2018-12-21T19:42:05.525Z,6.43
2018-12-21T19:47:10.769Z,4.87
2018-12-21T19:52:16.289Z,4.07
2018-12-21T19:57:21.580Z,4.53
2018-12-21T20:02:26.947Z,12.83
2018-12-21T20:07:32.185Z,3.73
2018-12-21T20:12:37.421Z,6.33
2018-12-21T20:17:42.658Z,4.17
2018-12-21T20:22:47.890Z,4.63
2018-12-21T20:27:53.134Z,5.80
2018-12-21T20:32:58.427Z,5.53
2018-12-21T20:38:03.954Z,3.83
2018-12-21T20:43:09.539Z,4.83
2018-12-21T20:48:14.854Z,2.63
2018-12-21T20:53:20.133Z,3.83
2018-12-21T20:58:47.442Z,5.27
2018-12-21T21:03:52.677Z,6.20
2018-12-21T21:08:57.930Z,5.07
2018-12-21T21:14:03.214Z,6.00
2018-12-21T21:19:08.457Z,6.50
2018-12-21T21:24:13.701Z,6.53
2018-12-21T21:29:18.946Z,6.63
2018-12-21T21:34:24.226Z,8.37
2018-12-21T21:39:29.518Z,7.40
2018-12-21T21:44:34.781Z,9.07
2018-12-21T21:49:40.710Z,9.40
2018-12-21T21:54:45.969Z,9.77
2018-12-21T21:59:51.213Z,7.83
2018-12-21T22:04:56.545Z,11.43
2018-12-21T22:10:01.803Z,6.87
2018-12-21T22:15:09.129Z,12.07
2018-12-21T22:20:14.421Z,12.80
2018-12-21T22:25:19.745Z,5.97
2018-12-21T22:30:26.019Z,11.57
2018-12-21T22:35:31.398Z,9.33
2018-12-21T22:40:36.629Z,10.83
2018-12-21T22:45:41.881Z,11.23
2018-12-21T22:50:47.132Z,10.10
2018-12-21T22:55:52.389Z,13.33
2018-12-21T23:00:57.745Z,14.30
2018-12-21T23:06:03.217Z,13.60
2018-12-21T23:11:08.476Z,8.20
2018-12-21T23:16:13.725Z,9.63
2018-12-21T23:21:18.956Z,12.07
2018-12-21T23:26:24.205Z,16.60
2018-12-21T23:31:29.462Z,9.10
2018-12-21T23:36:34.729Z,10.97
2018-12-21T23:41:39.975Z,10.60
2018-12-21T23:46:45.256Z,8.30
2018-12-21T23:51:50.518Z,11.27
2018-12-21T23:56:55.786Z,12.07
